sensor_id;sensor_type;location;lat;lon;timestamp;P1;durP1;ratioP1;P2;durP2;ratioP2
8060;SDS011;4073;42.626;25.386;2023-10-13T00:00:32;16.60;;;10.10;;
8060;SDS011;4073;42.626;25.386;2023-10-13T00:03:06;16.20;;;10.03;;
8060;SDS011;4073;42.626;25.386;2023-10-13T00:05:40;14.90;;;9.77;;
8060;SDS011;4073;42.626;25.386;2023-10-13T00:08:07;16.10;;;10.97;;
8060;SDS011;4073;42.626;25.386;2023-10-13T00:10:34;17.57;;;11.10;;
8060;SDS011;4073;42.626;25.386;2023-10-13T00:13:00;15.13;;;10.40;;
8060;SDS011;4073;42.626;25.386;2023-10-13T00:15:41;17.67;;;11.10;;
8060;SDS011;4073;42.626;25.386;2023-10-13T00:18:29;14.90;;;11.00;;
8060;SDS011;4073;42.626;25.386;2023-10-13T00:21:01;19.30;;;11.20;;
8060;SDS011;4073;42.626;25.386;2023-10-13T00:23:46;13.30;;;9.93;;
8060;SDS011;4073;42.626;25.386;2023-10-13T00:26:21;12.13;;;9.67;;
8060;SDS011;4073;42.626;25.386;2023-10-13T00:28:50;14.83;;;9.47;;
8060;SDS011;4073;42.626;25.386;2023-10-13T00:31:24;14.40;;;10.63;;
8060;SDS011;4073;42.626;25.386;2023-10-13T00:33:58;14.47;;;10.37;;
8060;SDS011;4073;42.626;25.386;2023-10-13T00:36:34;17.23;;;10.93;;
8060;SDS011;4073;42.626;25.386;2023-10-13T00:39:00;13.27;;;10.23;;
8060;SDS011;4073;42.626;25.386;2023-10-13T00:41:25;15.67;;;9.60;;
8060;SDS011;4073;42.626;25.386;2023-10-13T00:44:11;14.27;;;9.27;;
8060;SDS011;4073;42.626;25.386;2023-10-13T00:46:36;12.47;;;8.63;;
8060;SDS011;4073;42.626;25.386;2023-10-13T00:49:04;11.83;;;7.70;;
8060;SDS011;4073;42.626;25.386;2023-10-13T00:51:30;10.17;;;8.67;;
8060;SDS011;4073;42.626;25.386;2023-10-13T00:54:22;9.67;;;7.13;;
8060;SDS011;4073;42.626;25.386;2023-10-13T00:56:52;8.47;;;6.17;;
8060;SDS011;4073;42.626;25.386;2023-10-13T00:59:29;8.33;;;6.53;;
8060;SDS011;4073;42.626;25.386;2023-10-13T01:01:59;9.07;;;6.93;;
8060;SDS011;4073;42.626;25.386;2023-10-13T01:04:45;9.37;;;6.93;;
8060;SDS011;4073;42.626;25.386;2023-10-13T01:07:11;8.10;;;5.67;;
8060;SDS011;4073;42.626;25.386;2023-10-13T01:09:40;7.30;;;6.07;;
8060;SDS011;4073;42.626;25.386;2023-10-13T01:12:08;7.07;;;5.03;;
8060;SDS011;4073;42.626;25.386;2023-10-13T01:14:34;7.43;;;5.07;;
8060;SDS011;4073;42.626;25.386;2023-10-13T01:17:01;7.70;;;5.37;;
8060;SDS011;4073;42.626;25.386;2023-10-13T01:19:28;6.90;;;5.97;;
8060;SDS011;4073;42.626;25.386;2023-10-13T01:21:54;6.90;;;6.03;;
8060;SDS011;4073;42.626;25.386;2023-10-13T01:24:27;6.30;;;5.47;;
8060;SDS011;4073;42.626;25.386;2023-10-13T01:26:56;8.70;;;6.07;;
8060;SDS011;4073;42.626;25.386;2023-10-13T01:29:22;9.23;;;6.23;;
8060;SDS011;4073;42.626;25.386;2023-10-13T01:31:54;14.53;;;8.47;;
8060;SDS011;4073;42.626;25.386;2023-10-13T01:34:20;18.30;;;10.70;;
8060;SDS011;4073;42.626;25.386;2023-10-13T01:39:16;14.37;;;9.40;;
8060;SDS011;4073;42.626;25.386;2023-10-13T01:41:43;10.60;;;8.63;;
8060;SDS011;4073;42.626;25.386;2023-10-13T01:44:09;13.93;;;9.03;;
8060;SDS011;4073;42.626;25.386;2023-10-13T01:46:39;12.13;;;8.00;;
8060;SDS011;4073;42.626;25.386;2023-10-13T01:49:07;10.37;;;7.83;;
8060;SDS011;4073;42.626;25.386;2023-10-13T01:51:33;15.70;;;8.80;;
8060;SDS011;4073;42.626;25.386;2023-10-13T01:53:58;11.23;;;8.33;;
8060;SDS011;4073;42.626;25.386;2023-10-13T01:56:28;12.60;;;8.13;;
8060;SDS011;4073;42.626;25.386;2023-10-13T01:58:55;12.10;;;7.83;;
8060;SDS011;4073;42.626;25.386;2023-10-13T02:01:21;12.00;;;8.07;;
8060;SDS011;4073;42.626;25.386;2023-10-13T02:03:53;9.43;;;6.73;;
8060;SDS011;4073;42.626;25.386;2023-10-13T02:06:27;10.70;;;6.97;;
8060;SDS011;4073;42.626;25.386;2023-10-13T02:08:57;12.87;;;6.93;;
8060;SDS011;4073;42.626;25.386;2023-10-13T02:11:43;11.40;;;7.37;;
8060;SDS011;4073;42.626;25.386;2023-10-13T02:14:12;11.13;;;7.47;;
8060;SDS011;4073;42.626;25.386;2023-10-13T02:16:41;12.77;;;7.93;;
8060;SDS011;4073;42.626;25.386;2023-10-13T02:19:07;14.73;;;7.73;;
8060;SDS011;4073;42.626;25.386;2023-10-13T02:21:33;13.57;;;7.70;;
8060;SDS011;4073;42.626;25.386;2023-10-13T02:24:07;11.77;;;8.57;;
8060;SDS011;4073;42.626;25.386;2023-10-13T02:26:38;10.07;;;7.23;;
8060;SDS011;4073;42.626;25.386;2023-10-13T02:29:04;7.53;;;6.63;;
8060;SDS011;4073;42.626;25.386;2023-10-13T02:31:37;9.30;;;6.67;;
8060;SDS011;4073;42.626;25.386;2023-10-13T02:34:04;12.13;;;7.40;;
8060;SDS011;4073;42.626;25.386;2023-10-13T02:36:36;12.90;;;7.27;;
8060;SDS011;4073;42.626;25.386;2023-10-13T02:39:03;11.07;;;7.37;;
8060;SDS011;4073;42.626;25.386;2023-10-13T02:41:32;11.10;;;6.97;;
8060;SDS011;4073;42.626;25.386;2023-10-13T02:44:02;10.17;;;6.47;;
8060;SDS011;4073;42.626;25.386;2023-10-13T02:46:31;7.80;;;7.00;;
8060;SDS011;4073;42.626;25.386;2023-10-13T02:49:00;13.87;;;7.93;;
8060;SDS011;4073;42.626;25.386;2023-10-13T02:51:27;13.80;;;8.17;;
8060;SDS011;4073;42.626;25.386;2023-10-13T02:54:02;9.93;;;7.33;;
8060;SDS011;4073;42.626;25.386;2023-10-13T02:56:37;16.77;;;8.57;;
8060;SDS011;4073;42.626;25.386;2023-10-13T02:59:14;16.87;;;9.47;;
8060;SDS011;4073;42.626;25.386;2023-10-13T03:01:39;12.03;;;9.03;;
8060;SDS011;4073;42.626;25.386;2023-10-13T03:04:05;16.33;;;8.57;;
8060;SDS011;4073;42.626;25.386;2023-10-13T03:06:38;14.03;;;8.50;;
8060;SDS011;4073;42.626;25.386;2023-10-13T03:09:07;15.03;;;9.03;;
8060;SDS011;4073;42.626;25.386;2023-10-13T03:11:43;13.57;;;7.83;;
8060;SDS011;4073;42.626;25.386;2023-10-13T03:14:22;13.30;;;9.00;;
8060;SDS011;4073;42.626;25.386;2023-10-13T03:16:52;15.03;;;8.43;;
8060;SDS011;4073;42.626;25.386;2023-10-13T03:19:19;15.73;;;9.37;;
8060;SDS011;4073;42.626;25.386;2023-10-13T03:21:45;15.30;;;8.77;;
8060;SDS011;4073;42.626;25.386;2023-10-13T03:24:20;14.93;;;9.03;;
8060;SDS011;4073;42.626;25.386;2023-10-13T03:26:58;15.33;;;9.27;;
8060;SDS011;4073;42.626;25.386;2023-10-13T03:29:34;14.67;;;9.13;;
8060;SDS011;4073;42.626;25.386;2023-10-13T03:32:09;16.47;;;9.47;;
8060;SDS011;4073;42.626;25.386;2023-10-13T03:34:40;14.90;;;9.33;;
8060;SDS011;4073;42.626;25.386;2023-10-13T03:37:21;11.97;;;8.77;;
8060;SDS011;4073;42.626;25.386;2023-10-13T03:40:06;15.40;;;8.77;;
8060;SDS011;4073;42.626;25.386;2023-10-13T03:42:48;17.63;;;10.07;;
8060;SDS011;4073;42.626;25.386;2023-10-13T03:45:23;15.83;;;8.53;;
8060;SDS011;4073;42.626;25.386;2023-10-13T03:47:50;14.27;;;9.43;;
8060;SDS011;4073;42.626;25.386;2023-10-13T03:50:21;16.53;;;9.37;;
8060;SDS011;4073;42.626;25.386;2023-10-13T03:52:57;15.30;;;10.23;;
8060;SDS011;4073;42.626;25.386;2023-10-13T03:55:23;18.97;;;10.73;;
8060;SDS011;4073;42.626;25.386;2023-10-13T03:57:52;15.37;;;10.07;;
8060;SDS011;4073;42.626;25.386;2023-10-13T04:00:19;17.67;;;11.30;;
8060;SDS011;4073;42.626;25.386;2023-10-13T04:02:56;24.07;;;11.77;;
8060;SDS011;4073;42.626;25.386;2023-10-13T04:05:28;16.63;;;10.97;;
8060;SDS011;4073;42.626;25.386;2023-10-13T04:08:10;22.30;;;13.00;;
8060;SDS011;4073;42.626;25.386;2023-10-13T04:10:47;21.60;;;11.37;;
8060;SDS011;4073;42.626;25.386;2023-10-13T04:13:16;22.53;;;11.60;;
8060;SDS011;4073;42.626;25.386;2023-10-13T04:16:00;21.33;;;11.00;;
8060;SDS011;4073;42.626;25.386;2023-10-13T04:18:44;11.87;;;8.73;;
8060;SDS011;4073;42.626;25.386;2023-10-13T04:21:25;10.93;;;8.07;;
8060;SDS011;4073;42.626;25.386;2023-10-13T04:24:03;12.50;;;7.90;;
8060;SDS011;4073;42.626;25.386;2023-10-13T04:26:48;12.33;;;7.43;;
8060;SDS011;4073;42.626;25.386;2023-10-13T04:29:33;11.87;;;7.87;;
8060;SDS011;4073;42.626;25.386;2023-10-13T04:32:34;13.03;;;8.83;;
8060;SDS011;4073;42.626;25.386;2023-10-13T04:35:06;16.37;;;9.60;;
8060;SDS011;4073;42.626;25.386;2023-10-13T04:37:43;13.20;;;8.97;;
8060;SDS011;4073;42.626;25.386;2023-10-13T04:40:26;18.47;;;9.67;;
8060;SDS011;4073;42.626;25.386;2023-10-13T04:43:00;14.00;;;9.37;;
8060;SDS011;4073;42.626;25.386;2023-10-13T04:45:30;22.10;;;12.30;;
8060;SDS011;4073;42.626;25.386;2023-10-13T04:47:56;20.57;;;10.77;;
8060;SDS011;4073;42.626;25.386;2023-10-13T04:50:38;20.53;;;11.57;;
8060;SDS011;4073;42.626;25.386;2023-10-13T04:53:10;26.77;;;12.20;;
8060;SDS011;4073;42.626;25.386;2023-10-13T04:55:54;16.33;;;10.60;;
8060;SDS011;4073;42.626;25.386;2023-10-13T04:58:32;17.57;;;10.40;;
8060;SDS011;4073;42.626;25.386;2023-10-13T05:01:04;24.47;;;11.03;;
8060;SDS011;4073;42.626;25.386;2023-10-13T05:04:02;16.73;;;10.23;;
8060;SDS011;4073;42.626;25.386;2023-10-13T05:06:47;13.40;;;8.90;;
8060;SDS011;4073;42.626;25.386;2023-10-13T05:09:31;14.80;;;8.73;;
8060;SDS011;4073;42.626;25.386;2023-10-13T05:12:32;14.93;;;9.40;;
8060;SDS011;4073;42.626;25.386;2023-10-13T05:15:16;15.27;;;9.07;;
8060;SDS011;4073;42.626;25.386;2023-10-13T05:18:00;23.13;;;11.00;;
8060;SDS011;4073;42.626;25.386;2023-10-13T05:20:44;20.50;;;11.43;;
8060;SDS011;4073;42.626;25.386;2023-10-13T05:23:41;16.43;;;9.60;;
8060;SDS011;4073;42.626;25.386;2023-10-13T05:26:26;18.60;;;10.00;;
8060;SDS011;4073;42.626;25.386;2023-10-13T05:29:09;14.27;;;9.00;;
8060;SDS011;4073;42.626;25.386;2023-10-13T05:31:53;16.30;;;9.63;;
8060;SDS011;4073;42.626;25.386;2023-10-13T05:34:37;14.73;;;9.07;;
8060;SDS011;4073;42.626;25.386;2023-10-13T05:37:21;14.27;;;8.40;;
8060;SDS011;4073;42.626;25.386;2023-10-13T05:40:05;16.73;;;8.80;;
8060;SDS011;4073;42.626;25.386;2023-10-13T05:42:51;11.40;;;6.63;;
8060;SDS011;4073;42.626;25.386;2023-10-13T05:45:34;7.97;;;6.03;;
8060;SDS011;4073;42.626;25.386;2023-10-13T05:48:18;7.33;;;5.53;;
8060;SDS011;4073;42.626;25.386;2023-10-13T05:51:02;9.50;;;6.07;;
8060;SDS011;4073;42.626;25.386;2023-10-13T05:53:47;12.53;;;7.00;;
8060;SDS011;4073;42.626;25.386;2023-10-13T05:56:31;10.73;;;7.33;;
8060;SDS011;4073;42.626;25.386;2023-10-13T05:59:15;10.07;;;7.10;;
8060;SDS011;4073;42.626;25.386;2023-10-13T06:01:59;15.00;;;7.30;;
8060;SDS011;4073;42.626;25.386;2023-10-13T06:04:43;11.17;;;7.47;;
8060;SDS011;4073;42.626;25.386;2023-10-13T06:07:27;11.87;;;6.40;;
8060;SDS011;4073;42.626;25.386;2023-10-13T06:10:11;34.27;;;6.70;;
8060;SDS011;4073;42.626;25.386;2023-10-13T06:12:55;6.80;;;5.50;;
8060;SDS011;4073;42.626;25.386;2023-10-13T06:15:39;6.57;;;4.63;;
8060;SDS011;4073;42.626;25.386;2023-10-13T06:18:23;7.83;;;4.63;;
8060;SDS011;4073;42.626;25.386;2023-10-13T06:21:07;5.57;;;4.30;;
8060;SDS011;4073;42.626;25.386;2023-10-13T06:23:51;6.73;;;3.97;;
8060;SDS011;4073;42.626;25.386;2023-10-13T06:26:35;6.27;;;3.83;;
8060;SDS011;4073;42.626;25.386;2023-10-13T06:29:19;7.27;;;4.07;;
8060;SDS011;4073;42.626;25.386;2023-10-13T06:31:45;6.37;;;4.00;;
8060;SDS011;4073;42.626;25.386;2023-10-13T06:34:11;7.27;;;4.30;;
8060;SDS011;4073;42.626;25.386;2023-10-13T06:36:40;6.20;;;3.77;;
8060;SDS011;4073;42.626;25.386;2023-10-13T06:39:07;6.50;;;4.20;;
8060;SDS011;4073;42.626;25.386;2023-10-13T06:42:00;4.90;;;3.77;;
8060;SDS011;4073;42.626;25.386;2023-10-13T06:44:25;4.73;;;3.37;;
8060;SDS011;4073;42.626;25.386;2023-10-13T06:46:51;5.63;;;4.20;;
8060;SDS011;4073;42.626;25.386;2023-10-13T06:49:17;7.73;;;4.37;;
8060;SDS011;4073;42.626;25.386;2023-10-13T06:51:43;5.43;;;3.90;;
8060;SDS011;4073;42.626;25.386;2023-10-13T06:54:11;8.60;;;4.50;;
8060;SDS011;4073;42.626;25.386;2023-10-13T06:56:45;6.70;;;3.70;;
8060;SDS011;4073;42.626;25.386;2023-10-13T06:59:11;8.17;;;4.47;;
8060;SDS011;4073;42.626;25.386;2023-10-13T07:01:39;9.10;;;3.97;;
8060;SDS011;4073;42.626;25.386;2023-10-13T07:04:07;6.97;;;4.33;;
8060;SDS011;4073;42.626;25.386;2023-10-13T07:06:39;6.87;;;4.40;;
8060;SDS011;4073;42.626;25.386;2023-10-13T07:09:17;8.53;;;3.97;;
8060;SDS011;4073;42.626;25.386;2023-10-13T07:12:04;6.37;;;4.20;;
8060;SDS011;4073;42.626;25.386;2023-10-13T07:14:32;5.77;;;4.40;;
8060;SDS011;4073;42.626;25.386;2023-10-13T07:17:02;11.77;;;4.43;;
8060;SDS011;4073;42.626;25.386;2023-10-13T07:19:30;7.00;;;4.23;;
8060;SDS011;4073;42.626;25.386;2023-10-13T07:21:56;8.40;;;4.37;;
8060;SDS011;4073;42.626;25.386;2023-10-13T07:24:41;5.60;;;4.27;;
8060;SDS011;4073;42.626;25.386;2023-10-13T07:27:07;6.87;;;4.17;;
8060;SDS011;4073;42.626;25.386;2023-10-13T07:29:32;6.87;;;4.03;;
8060;SDS011;4073;42.626;25.386;2023-10-13T07:32:02;6.40;;;4.40;;
8060;SDS011;4073;42.626;25.386;2023-10-13T07:34:28;10.70;;;4.83;;
8060;SDS011;4073;42.626;25.386;2023-10-13T07:36:57;4.97;;;4.27;;
8060;SDS011;4073;42.626;25.386;2023-10-13T07:39:29;4.53;;;3.67;;
8060;SDS011;4073;42.626;25.386;2023-10-13T07:41:59;5.67;;;4.10;;
8060;SDS011;4073;42.626;25.386;2023-10-13T07:44:33;7.23;;;3.67;;
8060;SDS011;4073;42.626;25.386;2023-10-13T07:47:02;8.43;;;3.83;;
8060;SDS011;4073;42.626;25.386;2023-10-13T07:49:36;7.07;;;4.27;;
8060;SDS011;4073;42.626;25.386;2023-10-13T07:52:06;6.70;;;4.00;;
8060;SDS011;4073;42.626;25.386;2023-10-13T07:54:48;8.17;;;4.50;;
8060;SDS011;4073;42.626;25.386;2023-10-13T07:57:21;6.60;;;3.80;;
8060;SDS011;4073;42.626;25.386;2023-10-13T07:59:54;11.10;;;4.40;;
8060;SDS011;4073;42.626;25.386;2023-10-13T08:03:01;9.40;;;5.10;;
8060;SDS011;4073;42.626;25.386;2023-10-13T08:05:41;5.60;;;4.27;;
8060;SDS011;4073;42.626;25.386;2023-10-13T08:08:43;9.33;;;4.47;;
8060;SDS011;4073;42.626;25.386;2023-10-13T08:11:14;9.43;;;4.67;;
8060;SDS011;4073;42.626;25.386;2023-10-13T08:14:00;5.93;;;4.13;;
8060;SDS011;4073;42.626;25.386;2023-10-13T08:16:36;6.10;;;3.87;;
8060;SDS011;4073;42.626;25.386;2023-10-13T08:19:19;8.13;;;4.23;;
8060;SDS011;4073;42.626;25.386;2023-10-13T08:21:52;4.67;;;4.20;;
8060;SDS011;4073;42.626;25.386;2023-10-13T08:24:45;13.23;;;4.50;;
8060;SDS011;4073;42.626;25.386;2023-10-13T08:27:12;7.07;;;4.20;;
8060;SDS011;4073;42.626;25.386;2023-10-13T08:29:39;6.20;;;4.13;;
8060;SDS011;4073;42.626;25.386;2023-10-13T08:32:36;7.90;;;4.30;;
8060;SDS011;4073;42.626;25.386;2023-10-13T08:35:10;7.20;;;4.10;;
8060;SDS011;4073;42.626;25.386;2023-10-13T08:37:47;8.77;;;4.80;;
8060;SDS011;4073;42.626;25.386;2023-10-13T08:40:27;8.43;;;4.60;;
8060;SDS011;4073;42.626;25.386;2023-10-13T08:43:21;6.93;;;4.23;;
8060;SDS011;4073;42.626;25.386;2023-10-13T08:45:48;5.27;;;4.13;;
8060;SDS011;4073;42.626;25.386;2023-10-13T08:48:14;7.10;;;4.00;;
8060;SDS011;4073;42.626;25.386;2023-10-13T08:50:47;8.97;;;4.33;;
8060;SDS011;4073;42.626;25.386;2023-10-13T08:53:26;5.03;;;3.73;;
8060;SDS011;4073;42.626;25.386;2023-10-13T08:55:59;10.53;;;3.50;;
8060;SDS011;4073;42.626;25.386;2023-10-13T08:58:36;5.03;;;3.40;;
8060;SDS011;4073;42.626;25.386;2023-10-13T09:01:20;7.00;;;3.30;;
8060;SDS011;4073;42.626;25.386;2023-10-13T09:04:12;4.80;;;2.93;;
8060;SDS011;4073;42.626;25.386;2023-10-13T09:14:51;5.33;;;3.40;;
8060;SDS011;4073;42.626;25.386;2023-10-13T09:17:24;4.17;;;3.27;;
8060;SDS011;4073;42.626;25.386;2023-10-13T09:20:00;4.37;;;3.33;;
8060;SDS011;4073;42.626;25.386;2023-10-13T09:22:44;3.00;;;2.70;;
8060;SDS011;4073;42.626;25.386;2023-10-13T09:25:21;8.63;;;3.17;;
8060;SDS011;4073;42.626;25.386;2023-10-13T09:27:48;6.53;;;3.47;;
8060;SDS011;4073;42.626;25.386;2023-10-13T09:30:18;8.30;;;5.10;;
8060;SDS011;4073;42.626;25.386;2023-10-13T09:32:58;10.23;;;6.77;;
8060;SDS011;4073;42.626;25.386;2023-10-13T09:35:30;7.23;;;6.03;;
8060;SDS011;4073;42.626;25.386;2023-10-13T09:37:59;11.20;;;9.23;;
8060;SDS011;4073;42.626;25.386;2023-10-13T09:40:27;16.87;;;11.30;;
8060;SDS011;4073;42.626;25.386;2023-10-13T09:43:03;7.10;;;5.10;;
8060;SDS011;4073;42.626;25.386;2023-10-13T09:45:40;6.30;;;3.53;;
8060;SDS011;4073;42.626;25.386;2023-10-13T09:48:22;8.30;;;3.37;;
8060;SDS011;4073;42.626;25.386;2023-10-13T09:51:15;4.87;;;3.47;;
8060;SDS011;4073;42.626;25.386;2023-10-13T09:53:52;8.07;;;5.93;;
8060;SDS011;4073;42.626;25.386;2023-10-13T09:56:27;8.93;;;4.33;;
8060;SDS011;4073;42.626;25.386;2023-10-13T09:58:56;12.53;;;10.13;;
8060;SDS011;4073;42.626;25.386;2023-10-13T10:01:33;6.13;;;4.37;;
8060;SDS011;4073;42.626;25.386;2023-10-13T10:04:07;9.50;;;6.27;;
8060;SDS011;4073;42.626;25.386;2023-10-13T10:06:36;9.53;;;6.57;;
8060;SDS011;4073;42.626;25.386;2023-10-13T10:09:10;10.23;;;6.07;;
8060;SDS011;4073;42.626;25.386;2023-10-13T10:14:19;7.00;;;4.40;;
8060;SDS011;4073;42.626;25.386;2023-10-13T10:16:50;6.60;;;4.07;;
8060;SDS011;4073;42.626;25.386;2023-10-13T10:19:27;4.70;;;3.87;;
8060;SDS011;4073;42.626;25.386;2023-10-13T10:22:03;6.00;;;4.47;;
8060;SDS011;4073;42.626;25.386;2023-10-13T10:24:55;5.57;;;4.97;;
8060;SDS011;4073;42.626;25.386;2023-10-13T10:27:30;6.77;;;4.23;;
8060;SDS011;4073;42.626;25.386;2023-10-13T10:29:57;7.07;;;4.97;;
8060;SDS011;4073;42.626;25.386;2023-10-13T10:32:33;10.37;;;5.50;;
8060;SDS011;4073;42.626;25.386;2023-10-13T10:35:05;6.23;;;4.13;;
8060;SDS011;4073;42.626;25.386;2023-10-13T10:37:40;5.33;;;3.90;;
8060;SDS011;4073;42.626;25.386;2023-10-13T10:40:12;7.60;;;4.30;;
8060;SDS011;4073;42.626;25.386;2023-10-13T10:42:58;5.73;;;3.90;;
8060;SDS011;4073;42.626;25.386;2023-10-13T10:45:26;5.40;;;3.73;;
8060;SDS011;4073;42.626;25.386;2023-10-13T10:47:58;5.17;;;3.47;;
8060;SDS011;4073;42.626;25.386;2023-10-13T10:50:26;4.57;;;3.03;;
8060;SDS011;4073;42.626;25.386;2023-10-13T10:53:00;4.00;;;3.27;;
8060;SDS011;4073;42.626;25.386;2023-10-13T10:55:33;4.77;;;3.17;;
8060;SDS011;4073;42.626;25.386;2023-10-13T10:58:01;6.20;;;4.27;;
8060;SDS011;4073;42.626;25.386;2023-10-13T11:00:29;4.60;;;3.63;;
8060;SDS011;4073;42.626;25.386;2023-10-13T11:03:07;3.83;;;3.13;;
8060;SDS011;4073;42.626;25.386;2023-10-13T11:05:42;8.33;;;4.47;;
8060;SDS011;4073;42.626;25.386;2023-10-13T11:08:19;4.27;;;3.53;;
8060;SDS011;4073;42.626;25.386;2023-10-13T11:10:56;6.77;;;3.53;;
8060;SDS011;4073;42.626;25.386;2023-10-13T11:13:21;5.00;;;3.90;;
8060;SDS011;4073;42.626;25.386;2023-10-13T11:15:47;6.87;;;3.93;;
8060;SDS011;4073;42.626;25.386;2023-10-13T11:18:13;7.47;;;2.87;;
8060;SDS011;4073;42.626;25.386;2023-10-13T11:20:46;7.47;;;3.80;;
8060;SDS011;4073;42.626;25.386;2023-10-13T11:23:19;6.73;;;3.90;;
8060;SDS011;4073;42.626;25.386;2023-10-13T11:25:55;3.80;;;2.97;;
8060;SDS011;4073;42.626;25.386;2023-10-13T11:28:21;4.73;;;3.57;;
8060;SDS011;4073;42.626;25.386;2023-10-13T11:30:56;4.37;;;3.10;;
8060;SDS011;4073;42.626;25.386;2023-10-13T11:33:29;5.97;;;3.57;;
8060;SDS011;4073;42.626;25.386;2023-10-13T11:35:57;7.03;;;3.43;;
8060;SDS011;4073;42.626;25.386;2023-10-13T11:38:28;7.77;;;3.43;;
8060;SDS011;4073;42.626;25.386;2023-10-13T11:41:16;4.93;;;3.63;;
8060;SDS011;4073;42.626;25.386;2023-10-13T11:43:45;4.23;;;3.03;;
8060;SDS011;4073;42.626;25.386;2023-10-13T11:46:15;5.03;;;2.20;;
8060;SDS011;4073;42.626;25.386;2023-10-13T11:56:37;3.50;;;2.63;;
8060;SDS011;4073;42.626;25.386;2023-10-13T11:59:04;2.93;;;2.13;;
8060;SDS011;4073;42.626;25.386;2023-10-13T12:01:31;5.07;;;2.47;;
8060;SDS011;4073;42.626;25.386;2023-10-13T12:04:29;4.23;;;2.20;;
8060;SDS011;4073;42.626;25.386;2023-10-13T12:06:57;5.83;;;2.43;;
8060;SDS011;4073;42.626;25.386;2023-10-13T12:09:41;5.57;;;2.70;;
8060;SDS011;4073;42.626;25.386;2023-10-13T12:12:19;4.77;;;2.37;;
8060;SDS011;4073;42.626;25.386;2023-10-13T12:14:45;4.17;;;2.33;;
8060;SDS011;4073;42.626;25.386;2023-10-13T12:17:24;6.67;;;2.50;;
8060;SDS011;4073;42.626;25.386;2023-10-13T12:19:59;3.13;;;2.13;;
8060;SDS011;4073;42.626;25.386;2023-10-13T12:22:34;3.03;;;2.17;;
8060;SDS011;4073;42.626;25.386;2023-10-13T12:25:07;4.77;;;2.20;;
8060;SDS011;4073;42.626;25.386;2023-10-13T12:27:59;3.90;;;2.30;;
8060;SDS011;4073;42.626;25.386;2023-10-13T12:30:43;4.57;;;2.40;;
8060;SDS011;4073;42.626;25.386;2023-10-13T12:33:18;4.77;;;2.57;;
8060;SDS011;4073;42.626;25.386;2023-10-13T12:36:00;10.20;;;2.47;;
8060;SDS011;4073;42.626;25.386;2023-10-13T12:38:38;4.00;;;2.50;;
8060;SDS011;4073;42.626;25.386;2023-10-13T12:41:21;5.70;;;2.30;;
8060;SDS011;4073;42.626;25.386;2023-10-13T12:44:06;5.03;;;2.87;;
8060;SDS011;4073;42.626;25.386;2023-10-13T12:46:53;2.50;;;2.17;;
8060;SDS011;4073;42.626;25.386;2023-10-13T12:49:37;5.60;;;2.70;;
8060;SDS011;4073;42.626;25.386;2023-10-13T12:52:05;5.30;;;2.50;;
8060;SDS011;4073;42.626;25.386;2023-10-13T12:54:44;3.60;;;2.90;;
8060;SDS011;4073;42.626;25.386;2023-10-13T12:57:22;5.40;;;2.60;;
8060;SDS011;4073;42.626;25.386;2023-10-13T12:59:49;3.23;;;2.00;;
8060;SDS011;4073;42.626;25.386;2023-10-13T13:02:14;4.07;;;2.90;;
8060;SDS011;4073;42.626;25.386;2023-10-13T13:04:43;5.50;;;2.60;;
8060;SDS011;4073;42.626;25.386;2023-10-13T13:07:09;3.40;;;2.17;;
8060;SDS011;4073;42.626;25.386;2023-10-13T13:09:41;4.53;;;2.37;;
8060;SDS011;4073;42.626;25.386;2023-10-13T13:12:07;5.33;;;2.47;;
8060;SDS011;4073;42.626;25.386;2023-10-13T13:14:32;8.00;;;2.50;;
8060;SDS011;4073;42.626;25.386;2023-10-13T13:16:59;5.53;;;2.73;;
8060;SDS011;4073;42.626;25.386;2023-10-13T13:19:35;4.60;;;2.27;;
8060;SDS011;4073;42.626;25.386;2023-10-13T13:22:08;13.03;;;3.10;;
8060;SDS011;4073;42.626;25.386;2023-10-13T13:24:40;8.30;;;2.83;;
8060;SDS011;4073;42.626;25.386;2023-10-13T13:27:13;5.07;;;2.67;;
8060;SDS011;4073;42.626;25.386;2023-10-13T13:29:42;6.03;;;2.83;;
8060;SDS011;4073;42.626;25.386;2023-10-13T13:32:11;6.20;;;2.67;;
8060;SDS011;4073;42.626;25.386;2023-10-13T13:35:03;5.03;;;2.70;;
8060;SDS011;4073;42.626;25.386;2023-10-13T13:37:30;3.70;;;2.43;;
8060;SDS011;4073;42.626;25.386;2023-10-13T13:39:59;4.10;;;2.73;;
8060;SDS011;4073;42.626;25.386;2023-10-13T13:42:41;4.77;;;2.83;;
8060;SDS011;4073;42.626;25.386;2023-10-13T13:45:16;4.60;;;2.67;;
8060;SDS011;4073;42.626;25.386;2023-10-13T13:47:54;4.57;;;2.50;;
8060;SDS011;4073;42.626;25.386;2023-10-13T13:50:26;5.77;;;2.40;;
8060;SDS011;4073;42.626;25.386;2023-10-13T13:52:54;4.27;;;3.13;;
8060;SDS011;4073;42.626;25.386;2023-10-13T13:55:24;6.33;;;3.60;;
8060;SDS011;4073;42.626;25.386;2023-10-13T13:57:56;7.17;;;3.00;;
8060;SDS011;4073;42.626;25.386;2023-10-13T14:00:22;6.23;;;3.00;;
8060;SDS011;4073;42.626;25.386;2023-10-13T14:03:02;7.40;;;4.50;;
8060;SDS011;4073;42.626;25.386;2023-10-13T14:05:29;6.60;;;4.47;;
8060;SDS011;4073;42.626;25.386;2023-10-13T14:07:54;7.03;;;3.77;;
8060;SDS011;4073;42.626;25.386;2023-10-13T14:10:20;5.73;;;3.03;;
8060;SDS011;4073;42.626;25.386;2023-10-13T14:13:01;7.30;;;2.83;;
8060;SDS011;4073;42.626;25.386;2023-10-13T14:15:38;4.80;;;2.70;;
8060;SDS011;4073;42.626;25.386;2023-10-13T14:18:09;3.03;;;2.70;;
8060;SDS011;4073;42.626;25.386;2023-10-13T14:20:39;9.03;;;3.00;;
8060;SDS011;4073;42.626;25.386;2023-10-13T14:23:07;5.53;;;2.57;;
8060;SDS011;4073;42.626;25.386;2023-10-13T14:25:37;6.60;;;3.10;;
8060;SDS011;4073;42.626;25.386;2023-10-13T14:28:09;6.70;;;3.47;;
8060;SDS011;4073;42.626;25.386;2023-10-13T14:30:36;9.40;;;3.07;;
8060;SDS011;4073;42.626;25.386;2023-10-13T14:33:02;6.60;;;2.97;;
8060;SDS011;4073;42.626;25.386;2023-10-13T14:35:28;5.40;;;3.50;;
8060;SDS011;4073;42.626;25.386;2023-10-13T14:37:54;4.90;;;3.27;;
8060;SDS011;4073;42.626;25.386;2023-10-13T14:40:19;5.00;;;3.70;;
8060;SDS011;4073;42.626;25.386;2023-10-13T14:42:48;4.23;;;3.20;;
8060;SDS011;4073;42.626;25.386;2023-10-13T14:45:14;6.00;;;3.90;;
8060;SDS011;4073;42.626;25.386;2023-10-13T14:47:42;4.37;;;2.93;;
8060;SDS011;4073;42.626;25.386;2023-10-13T14:50:08;6.27;;;3.70;;
8060;SDS011;4073;42.626;25.386;2023-10-13T14:52:42;10.13;;;6.17;;
8060;SDS011;4073;42.626;25.386;2023-10-13T14:55:08;5.93;;;3.50;;
8060;SDS011;4073;42.626;25.386;2023-10-13T14:57:44;6.47;;;3.70;;
8060;SDS011;4073;42.626;25.386;2023-10-13T15:00:15;5.13;;;4.00;;
8060;SDS011;4073;42.626;25.386;2023-10-13T15:02:50;6.60;;;3.73;;
8060;SDS011;4073;42.626;25.386;2023-10-13T15:05:16;9.37;;;4.73;;
8060;SDS011;4073;42.626;25.386;2023-10-13T15:07:44;12.83;;;4.93;;
8060;SDS011;4073;42.626;25.386;2023-10-13T15:10:13;8.00;;;5.37;;
8060;SDS011;4073;42.626;25.386;2023-10-13T15:12:43;5.90;;;4.10;;
8060;SDS011;4073;42.626;25.386;2023-10-13T15:15:11;8.07;;;4.40;;
8060;SDS011;4073;42.626;25.386;2023-10-13T15:17:44;9.67;;;5.47;;
8060;SDS011;4073;42.626;25.386;2023-10-13T15:20:13;9.03;;;4.20;;
8060;SDS011;4073;42.626;25.386;2023-10-13T15:22:44;6.03;;;4.10;;
8060;SDS011;4073;42.626;25.386;2023-10-13T15:25:12;5.63;;;4.20;;
8060;SDS011;4073;42.626;25.386;2023-10-13T15:28:00;9.10;;;4.23;;
8060;SDS011;4073;42.626;25.386;2023-10-13T15:30:31;13.77;;;5.80;;
8060;SDS011;4073;42.626;25.386;2023-10-13T15:33:12;10.03;;;5.93;;
8060;SDS011;4073;42.626;25.386;2023-10-13T15:35:38;18.33;;;7.77;;
8060;SDS011;4073;42.626;25.386;2023-10-13T15:38:08;37.80;;;23.03;;
8060;SDS011;4073;42.626;25.386;2023-10-13T15:40:39;38.27;;;25.60;;
8060;SDS011;4073;42.626;25.386;2023-10-13T15:43:08;29.10;;;17.23;;
8060;SDS011;4073;42.626;25.386;2023-10-13T15:45:34;18.77;;;7.77;;
8060;SDS011;4073;42.626;25.386;2023-10-13T15:48:07;11.83;;;6.57;;
8060;SDS011;4073;42.626;25.386;2023-10-13T15:50:36;15.97;;;4.97;;
8060;SDS011;4073;42.626;25.386;2023-10-13T15:53:05;13.27;;;5.27;;
8060;SDS011;4073;42.626;25.386;2023-10-13T15:55:35;10.40;;;5.03;;
8060;SDS011;4073;42.626;25.386;2023-10-13T15:58:02;9.53;;;4.83;;